Flight Track Log - Related Links

Times and Time Zones

All times are in EDT time to prevent confusion due to time zone crossing. See the SWA1377 flight status page for this flight to view local times or setup timezone preferences in your user account.

Time Position Orientation Groundspeed Altitude Reporting Facility
EDT Latitude Longitude Course Direction KTS MPH feet Rate Location/Type
Sun 12:30:32 PM 42.8089 -78.7833 193° South 273 314 7,200  Level Cleveland Center
Sun 12:31:32 PM 42.7356 -78.7628 168° South 289 333 10,900 3,000 Climbing Cleveland Center
Sun 12:32:32 PM 42.6456 -78.7428 171° South 297 342 13,200 2,750 Climbing Cleveland Center
Sun 12:33:32 PM 42.5453 -78.7203 171° South 339 390 16,400 3,000 Climbing Cleveland Center
Sun 12:34:32 PM 42.4406 -78.6953 170° South 370 426 19,200 3,000 Climbing Cleveland Center
Sun 12:35:32 PM 42.3317 -78.6647 168° South 391 450 22,400 1,900 Climbing Cleveland Center
Sun 12:36:32 PM 42.2425 -78.5694 142° Southeast 391 450 23,000 300 Climbing Cleveland Center
Sun 12:37:32 PM 42.1553 -78.4628 138° Southeast 433 498 23,000  Level Cleveland Center
Sun 12:38:32 PM 42.0592 -78.3486 139° Southeast 448 516 23,000  Level Cleveland Center
Sun 12:39:32 PM 41.9608 -78.2319 139° Southeast 462 532 23,000  Level Cleveland Center
Sun 12:40:32 PM 41.8628 -78.1183 139° Southeast 467 537 23,000  Level Cleveland Center
Sun 12:41:32 PM 41.7664 -78.0053 139° Southeast 467 537 23,000  Level Cleveland Center
Sun 12:42:41 PM 41.6489 -77.8669 139° Southeast 468 539 23,000  Level New York Center
Sun 12:43:42 PM 41.5517 -77.7511 138° Southeast 468 539 23,000  Level New York Center
Sun 12:44:39 PM 41.4519 -77.6383 140° Southeast 468 539 23,000 -50 Level New York Center
Sun 12:45:41 PM 41.3544 -77.5233 138° Southeast 468 539 22,900 -537 Descending New York Center
Sun 12:46:42 PM 41.2564 -77.4142 140° Southeast 474 545 21,900 -900 Descending New York Center
Sun 12:47:41 PM 41.1681 -77.3144 140° Southeast 474 545 21,100 -908 Descending New York Center
Sun 12:48:41 PM 41.0681 -77.2031 140° Southeast 474 545 20,100 -958 Descending New York Center
Sun 12:49:40 PM 40.9700 -77.0892 139° Southeast 474 545 19,200 -1,050 Descending New York Center
Sun 12:50:41 PM 40.8736 -76.9786 139° Southeast 474 545 18,000 -595 Descending New York Center
Sun 12:51:41 PM 40.7789 -76.8742 140° Southeast 423 487 18,000 -100 Level New York Center
Sun 12:52:41 PM 40.7025 -76.7797 137° Southeast 389 448 17,800 -508 Descending New York Center
Sun 12:53:39 PM 40.6319 -76.6942 137° Southeast 382 440 17,000 -555 Descending New York Center
Sun 12:54:40 PM 40.5494 -76.5917 137° Southeast 382 440 16,700 -590 Descending New York Center
Sun 12:55:41 PM 40.4903 -76.4803 125° Southeast 372 428 15,800 -843 Descending New York Center
Sun 12:56:41 PM 40.4308 -76.3717 126° Southeast 372 428 15,000 -347 Descending New York Center
Sun 12:57:42 PM 40.3600 -76.2786 135° Southeast 364 419 15,100 -51 Climbing New York Center
Sun 12:58:39 PM 40.2617 -76.2872 184° South 339 390 14,900 -559 Descending New York Center
Sun 12:59:40 PM 40.1658 -76.2903 181° South 350 403 14,000 -1,082 Descending New York Center
Sun 01:00:41 PM 40.0758 -76.2942 182° South 337 388 12,700 -574 Descending New York Center
Sun 01:03:09 PM 39.8833 -76.2000 159° South 291 335 12,000 -208 Descending Potomac TRACON
Sun 01:04:03 PM 39.8167 -76.2333 201° Southwest 286 329 12,000  Level Potomac TRACON
Sun 01:05:09 PM 39.7500 -76.2833 210° Southwest 283 326 12,000 -381 Level Potomac TRACON
Sun 01:06:09 PM 39.6667 -76.3333 205° Southwest 287 330 11,200 -1,043 Descending Potomac TRACON
Sun 01:07:04 PM 39.6333 -76.4000 237° Southwest 285 328 10,000 -626 Descending Potomac TRACON
Sun 01:08:04 PM 39.6167 -76.5000 258° West 266 306 10,000  Level Potomac TRACON
Sun 01:09:04 PM 39.6167 -76.5833 270° West 265 305 10,000 -450 Level Potomac TRACON
Sun 01:10:04 PM 39.6167 -76.7000 270° West 271 312 9,100 -1,091 Descending Potomac TRACON
Sun 01:11:05 PM 39.6167 -76.7833 270° West 264 304 7,800 -1,148 Descending Potomac TRACON
Sun 01:11:59 PM 39.6167 -76.8667 270° West 264 304 6,900 -835 Descending Potomac TRACON
Sun 01:13:00 PM 39.6000 -76.9500 255° West 239 275 6,200 -446 Descending Potomac TRACON
Sun 01:14:00 PM 39.5500 -76.9333 166° South 212 244 6,000 -368 Descending Potomac TRACON
Sun 01:14:54 PM 39.5000 -76.9167 166° South 214 246 5,500 -737 Descending Potomac TRACON
Sun 01:15:54 PM 39.4500 -76.8833 153° Southeast 210 242 4,600 -789 Descending Potomac TRACON
Sun 01:16:48 PM 39.4000 -76.8667 166° South 206 237 4,000 -316 Descending Potomac TRACON
Sun 01:17:48 PM 39.3500 -76.8333 153° Southeast 185 213 4,000 -400 Level Potomac TRACON
Sun 01:18:48 PM 39.3000 -76.8000 153° Southeast 173 199 3,200 -950 Descending Potomac TRACON
Sun 01:19:48 PM 39.2667 -76.7500 131° Southeast 180 207 2,100 -950 Descending Potomac TRACON
Sun 01:20:48 PM 39.2333 -76.7167 142° Southeast 147 169 1,300 -800 Descending Potomac TRACON

Login

Don't have an account? Register now (free) for customized features, flight alerts, and more!